Time;durP1;ratioP1;P1;durP2;ratioP2;P2;SDS_P1;SDS_P2;PMS_P1;PMS_P2;Temp;Humidity;BMP_temperature;BMP_pressure;BME280_temperature;BME280_humidity;BME280_pressure;Samples;Min_cycle;Max_cycle;Signal;HPM_P1;HPM_P2
2021/06/15 00:00:12;;;;;;;17.25;8.73;;;19.30;84.00;;;;;;5089556;28;20028;-75
2021/06/15 00:02:38;;;;;;;18.40;10.23;;;19.30;83.90;;;;;;5075607;28;20964;-76
2021/06/15 00:05:05;;;;;;;18.80;8.90;;;19.30;83.90;;;;;;5085011;28;20028;-75
2021/06/15 00:07:31;;;;;;;20.05;9.90;;;19.20;83.90;;;;;;5080813;28;20454;-75
2021/06/15 00:09:57;;;;;;;18.27;9.30;;;19.30;84.20;;;;;;5096639;28;20047;-74
2021/06/15 00:12:23;;;;;;;17.02;9.65;;;19.20;84.30;;;;;;5098574;28;20024;-76
2021/06/15 00:14:48;;;;;;;17.67;9.02;;;19.20;84.30;;;;;;5091966;28;20032;-76
2021/06/15 00:17:14;;;;;;;20.70;8.95;;;19.20;84.10;;;;;;5089464;28;20077;-75
2021/06/15 00:19:40;;;;;;;16.58;9.15;;;19.20;84.10;;;;;;5073135;28;20028;-75
2021/06/15 00:22:05;;;;;;;18.10;9.52;;;19.20;84.20;;;;;;5094218;28;20028;-76
2021/06/15 00:24:31;;;;;;;16.08;9.23;;;19.20;84.20;;;;;;5094737;28;20077;-75
2021/06/15 00:26:57;;;;;;;16.55;8.73;;;19.00;84.70;;;;;;5097216;28;20038;-76
2021/06/15 00:29:22;;;;;;;16.17;8.70;;;19.00;84.80;;;;;;5095451;28;20034;-76
2021/06/15 00:31:48;;;;;;;14.00;8.13;;;18.90;84.80;;;;;;5080136;28;20055;-75
2021/06/15 00:34:14;;;;;;;13.60;8.07;;;19.00;84.90;;;;;;5088847;28;20025;-75
2021/06/15 00:36:40;;;;;;;14.60;7.60;;;19.00;84.50;;;;;;5089563;28;20028;-76
2021/06/15 00:39:06;;;;;;;17.33;8.18;;;19.00;84.30;;;;;;5102073;28;20025;-76
2021/06/15 00:41:34;;;;;;;15.38;7.53;;;19.00;84.70;;;;;;5091266;28;20062;-77
2021/06/15 00:44:00;;;;;;;12.88;6.95;;;19.00;84.50;;;;;;5092689;28;20028;-76
2021/06/15 00:46:26;;;;;;;15.50;7.45;;;19.00;84.10;;;;;;5078683;28;20080;-75
2021/06/15 00:48:52;;;;;;;17.58;7.95;;;19.00;84.40;;;;;;5091754;28;20028;-76
2021/06/15 00:51:21;;;;;;;16.98;8.00;;;19.00;84.40;;;;;;5077348;28;20036;-77
2021/06/15 00:53:47;;;;;;;14.77;8.57;;;19.00;84.70;;;;;;5098896;28;20024;-76
2021/06/15 00:56:12;;;;;;;19.40;8.15;;;18.90;84.90;;;;;;5085275;28;20035;-76
2021/06/15 00:58:38;;;;;;;14.05;8.00;;;18.80;85.00;;;;;;5069786;28;20035;-77
2021/06/15 01:01:05;;;;;;;17.85;7.97;;;18.80;85.40;;;;;;5079573;28;20051;-76
2021/06/15 01:03:31;;;;;;;16.35;6.95;;;18.80;85.70;;;;;;5099552;28;20095;-76
2021/06/15 01:05:57;;;;;;;12.82;7.28;;;18.70;85.60;;;;;;5090071;28;20040;-76
2021/06/15 01:08:32;;;;;;;12.98;7.28;;;18.80;85.50;;;;;;5095059;28;20107;-77
2021/06/15 01:11:07;;;;;;;15.15;7.28;;;18.80;85.80;;;;;;5097854;28;20031;-77
2021/06/15 01:14:06;;;;;;;13.60;7.75;;;18.80;85.50;;;;;;5087481;28;20090;-77
2021/06/15 01:16:36;;;;;;;13.05;6.97;;;18.70;85.80;;;;;;5091354;28;20036;-77
2021/06/15 01:19:37;;;;;;;15.25;8.05;;;18.70;85.80;;;;;;5102944;28;20086;-76
2021/06/15 01:22:36;;;;;;;15.30;7.07;;;18.70;85.90;;;;;;5072171;28;20038;-76
2021/06/15 01:25:08;;;;;;;14.50;8.43;;;18.60;85.90;;;;;;5095622;28;20047;-76
2021/06/15 01:27:48;;;;;;;11.52;6.93;;;18.60;86.20;;;;;;5081220;28;20027;-76
2021/06/15 01:30:16;;;;;;;12.57;5.57;;;18.60;86.10;;;;;;5095055;28;20500;-76
2021/06/15 01:32:48;;;;;;;10.98;6.07;;;18.60;85.40;;;;;;5096566;28;20036;-76
2021/06/15 01:35:15;;;;;;;17.63;7.13;;;18.70;85.70;;;;;;5083639;28;20032;-76
2021/06/15 01:37:51;;;;;;;14.45;6.68;;;18.60;85.70;;;;;;5084324;28;20024;-77
2021/06/15 01:40:22;;;;;;;15.75;6.85;;;18.60;85.60;;;;;;5104780;28;20115;-76
2021/06/15 01:42:53;;;;;;;16.33;6.07;;;18.60;85.90;;;;;;5101042;28;20107;-76
2021/06/15 01:45:34;;;;;;;17.17;6.68;;;18.50;85.80;;;;;;5096895;28;20281;-77
2021/06/15 01:48:24;;;;;;;16.30;6.15;;;18.50;86.00;;;;;;5094317;28;20028;-75
2021/06/15 01:50:52;;;;;;;13.85;5.68;;;18.50;86.00;;;;;;5071130;28;20036;-76
2021/06/15 01:53:20;;;;;;;12.90;5.88;;;18.40;86.00;;;;;;5094811;28;20031;-76
2021/06/15 01:55:49;;;;;;;14.55;6.28;;;18.40;86.00;;;;;;5090267;28;20103;-76
2021/06/15 01:58:16;;;;;;;9.73;5.43;;;18.40;86.00;;;;;;5096779;28;20016;-77
2021/06/15 02:00:43;;;;;;;14.07;5.68;;;18.40;85.90;;;;;;5094338;28;20021;-76
2021/06/15 02:03:11;;;;;;;12.30;5.70;;;18.40;85.80;;;;;;5097576;28;20035;-76
2021/06/15 02:05:56;;;;;;;13.77;5.45;;;18.40;86.00;;;;;;5095019;28;20040;-76
2021/06/15 02:08:32;;;;;;;14.13;5.72;;;18.40;86.00;;;;;;5093373;28;20386;-76
2021/06/15 02:10:59;;;;;;;12.77;4.82;;;18.30;86.10;;;;;;5084152;28;20028;-77
2021/06/15 02:13:28;;;;;;;13.88;5.72;;;18.20;86.10;;;;;;5081163;28;20035;-76
2021/06/15 02:15:56;;;;;;;13.95;5.60;;;18.30;86.30;;;;;;5094158;28;20047;-75
2021/06/15 02:18:23;;;;;;;13.70;5.25;;;18.20;86.40;;;;;;5085149;28;20028;-76
2021/06/15 02:20:50;;;;;;;15.90;5.20;;;18.20;86.40;;;;;;5093321;28;20103;-76
2021/06/15 02:23:22;;;;;;;14.35;5.15;;;18.20;86.30;;;;;;5094390;28;20035;-76
2021/06/15 02:25:53;;;;;;;17.33;5.20;;;18.20;86.10;;;;;;5075553;28;20071;-77
2021/06/15 02:28:20;;;;;;;15.40;4.50;;;18.20;86.20;;;;;;5078265;28;20024;-77
2021/06/15 02:30:46;;;;;;;16.90;5.00;;;18.10;85.90;;;;;;5086943;28;20033;-76
2021/06/15 02:33:15;;;;;;;9.55;4.15;;;18.10;86.00;;;;;;5094166;28;20445;-76
2021/06/15 02:35:50;;;;;;;13.25;5.20;;;18.10;85.90;;;;;;5094033;28;20028;-76
2021/06/15 02:38:26;;;;;;;8.77;3.97;;;18.10;85.90;;;;;;5094110;28;20047;-76
2021/06/15 02:40:57;;;;;;;12.68;4.20;;;18.00;85.70;;;;;;5060620;28;20174;-76
2021/06/15 02:43:24;;;;;;;14.73;4.32;;;18.00;85.60;;;;;;5093993;28;20099;-76
2021/06/15 02:45:53;;;;;;;12.45;4.20;;;18.00;85.20;;;;;;5093270;28;20035;-77
2021/06/15 02:48:22;;;;;;;18.52;4.63;;;18.00;85.30;;;;;;5055041;28;20041;-76
2021/06/15 02:50:50;;;;;;;11.13;4.15;;;18.00;85.00;;;;;;5090217;28;20422;-76
2021/06/15 02:53:22;;;;;;;9.85;3.67;;;17.90;85.00;;;;;;5094291;28;20077;-77
2021/06/15 02:55:56;;;;;;;13.50;4.05;;;17.90;85.00;;;;;;5089535;28;20030;-76
2021/06/15 02:58:23;;;;;;;14.30;3.75;;;17.90;84.70;;;;;;5093119;28;20028;-77
2021/06/15 03:00:49;;;;;;;13.40;3.60;;;17.80;84.90;;;;;;5071906;28;20036;-77
2021/06/15 03:03:15;;;;;;;16.40;4.00;;;17.80;85.00;;;;;;5080441;28;20020;-76
2021/06/15 03:05:41;;;;;;;9.32;3.15;;;17.70;84.80;;;;;;5093495;28;20494;-76
2021/06/15 03:08:10;;;;;;;10.38;3.35;;;17.70;85.00;;;;;;5093087;28;20081;-77
2021/06/15 03:10:36;;;;;;;13.93;3.85;;;17.60;84.70;;;;;;5093235;28;20233;-76
2021/06/15 03:13:07;;;;;;;11.40;3.80;;;17.60;84.80;;;;;;5093284;28;20028;-76
2021/06/15 03:15:43;;;;;;;10.80;3.30;;;17.60;84.70;;;;;;5093105;28;20028;-76
2021/06/15 03:18:49;;;;;;;12.27;3.60;;;17.60;84.60;;;;;;5092986;28;20027;-76
2021/06/15 03:21:23;;;;;;;10.75;3.13;;;17.60;84.70;;;;;;5044950;28;20032;-76
2021/06/15 03:23:58;;;;;;;13.95;3.22;;;17.60;84.70;;;;;;5081623;28;20056;-76
2021/06/15 03:26:27;;;;;;;11.30;3.10;;;17.50;84.30;;;;;;5092806;28;21139;-76
2021/06/15 03:28:58;;;;;;;8.90;3.20;;;17.50;84.30;;;;;;5092668;28;20035;-77
2021/06/15 03:31:27;;;;;;;9.68;3.38;;;17.40;84.40;;;;;;5054350;28;20121;-76
2021/06/15 03:33:55;;;;;;;12.98;3.47;;;17.40;84.40;;;;;;5087249;28;20494;-77
2021/06/15 03:36:25;;;;;;;13.95;3.30;;;17.40;84.40;;;;;;5091293;28;20031;-75
2021/06/15 03:39:02;;;;;;;13.73;3.70;;;17.30;84.40;;;;;;5091575;28;20386;-74
2021/06/15 03:41:29;;;;;;;10.25;3.10;;;17.30;84.70;;;;;;5092931;28;20024;-75
2021/06/15 03:44:00;;;;;;;7.95;3.03;;;17.30;84.60;;;;;;5093128;28;20529;-75
2021/06/15 03:46:29;;;;;;;12.60;3.25;;;17.30;84.50;;;;;;5075663;28;20028;-74
2021/06/15 03:48:57;;;;;;;15.40;3.13;;;17.30;84.20;;;;;;5092419;28;20028;-75
2021/06/15 03:51:28;;;;;;;10.90;3.42;;;17.30;84.30;;;;;;5092456;28;20035;-75
2021/06/15 03:54:06;;;;;;;14.98;3.78;;;17.30;84.00;;;;;;5092470;28;20032;-75
2021/06/15 03:56:35;;;;;;;13.07;2.83;;;17.30;84.20;;;;;;5071943;28;20037;-75
2021/06/15 03:59:01;;;;;;;10.63;2.80;;;17.30;84.10;;;;;;5091260;28;20039;-75
2021/06/15 04:01:29;;;;;;;11.35;3.00;;;17.30;83.90;;;;;;5091656;28;20150;-74
2021/06/15 04:03:55;;;;;;;8.23;2.50;;;17.40;83.90;;;;;;5074134;28;20032;-75
2021/06/15 04:06:22;;;;;;;11.45;2.60;;;17.40;83.80;;;;;;5085401;28;20030;-77
2021/06/15 04:08:49;;;;;;;12.30;2.88;;;17.40;83.50;;;;;;5094755;28;20060;-75
2021/06/15 04:11:17;;;;;;;12.00;3.60;;;17.40;83.50;;;;;;5090891;28;20412;-77
2021/06/15 04:13:43;;;;;;;11.25;3.08;;;17.40;83.30;;;;;;5106556;28;20031;-76
2021/06/15 04:16:12;;;;;;;15.82;3.30;;;17.40;83.30;;;;;;5096156;28;20032;-74
2021/06/15 04:18:43;;;;;;;16.90;3.38;;;17.30;83.10;;;;;;5079546;28;20428;-76
2021/06/15 04:21:11;;;;;;;11.98;2.83;;;17.30;83.30;;;;;;5074360;28;20028;-74
2021/06/15 04:24:06;;;;;;;10.48;2.50;;;17.30;83.50;;;;;;5071875;28;20032;-75
2021/06/15 04:26:36;;;;;;;11.00;2.70;;;17.20;83.40;;;;;;5072153;28;20040;-75
2021/06/15 04:29:06;;;;;;;8.35;2.72;;;17.20;83.60;;;;;;5092034;28;20123;-75
2021/06/15 04:31:34;;;;;;;9.43;3.05;;;17.20;83.40;;;;;;5091892;28;20059;-74
2021/06/15 04:34:02;;;;;;;8.00;2.53;;;17.30;83.20;;;;;;5097122;28;20431;-74
2021/06/15 04:36:29;;;;;;;11.75;2.33;;;17.30;83.00;;;;;;5111972;28;20035;-74
2021/06/15 04:39:03;;;;;;;11.40;3.50;;;17.30;83.50;;;;;;5093651;28;20024;-74
2021/06/15 04:41:38;;;;;;;11.43;3.00;;;17.30;83.50;;;;;;5080748;28;20027;-74
2021/06/15 04:44:07;;;;;;;8.43;2.60;;;17.20;83.20;;;;;;5073654;28;20039;-75
2021/06/15 04:46:56;;;;;;;14.25;2.75;;;17.20;83.40;;;;;;5091360;28;20026;-75
2021/06/15 04:49:34;;;;;;;8.23;2.63;;;17.20;83.50;;;;;;5091743;28;20103;-75
2021/06/15 04:52:02;;;;;;;8.50;2.38;;;17.20;83.50;;;;;;5092220;28;20032;-75
2021/06/15 04:54:35;;;;;;;8.80;2.75;;;17.20;83.60;;;;;;5096924;28;20019;-75
2021/06/15 04:57:08;;;;;;;8.23;2.70;;;17.20;83.40;;;;;;5089368;28;20103;-74
2021/06/15 04:59:36;;;;;;;9.10;2.35;;;17.10;83.20;;;;;;5089337;28;20450;-75
2021/06/15 05:02:04;;;;;;;12.35;3.08;;;17.10;83.10;;;;;;5090627;28;20028;-75
2021/06/15 05:04:31;;;;;;;9.23;2.88;;;17.10;83.20;;;;;;5079367;28;20099;-75
2021/06/15 05:06:57;;;;;;;14.07;2.58;;;17.10;83.30;;;;;;5083170;28;20039;-75
2021/06/15 05:09:29;;;;;;;11.45;3.05;;;17.10;83.20;;;;;;5091719;28;20032;-76
2021/06/15 05:11:56;;;;;;;8.45;3.00;;;17.10;83.20;;;;;;5079991;28;20029;-74
2021/06/15 05:14:33;;;;;;;10.85;2.42;;;17.10;83.10;;;;;;5081502;28;20077;-76
2021/06/15 05:17:00;;;;;;;10.32;3.08;;;17.10;82.80;;;;;;5089254;28;20028;-74
2021/06/15 05:19:26;;;;;;;8.93;2.55;;;17.00;82.50;;;;;;5084825;28;20009;-74
2021/06/15 05:22:04;;;;;;;13.48;2.35;;;17.10;82.60;;;;;;5091314;28;20559;-75
2021/06/15 05:24:52;;;;;;;8.60;2.38;;;17.10;82.30;;;;;;5089568;28;20056;-74
2021/06/15 05:27:26;;;;;;;9.15;2.08;;;17.10;82.10;;;;;;5091234;28;20434;-73
2021/06/15 05:29:53;;;;;;;8.98;2.10;;;17.10;82.10;;;;;;5090998;28;20038;-74
2021/06/15 05:32:19;;;;;;;7.88;2.58;;;17.10;82.10;;;;;;5091088;28;20028;-72
2021/06/15 05:34:46;;;;;;;6.97;2.30;;;17.10;82.20;;;;;;5083199;28;20073;-75
2021/06/15 05:37:12;;;;;;;9.43;2.38;;;17.20;82.10;;;;;;5078849;28;20027;-74
2021/06/15 05:39:38;;;;;;;11.50;2.92;;;17.20;81.80;;;;;;5074007;28;20111;-74
2021/06/15 05:42:06;;;;;;;13.80;3.13;;;17.20;81.80;;;;;;5092514;28;20115;-73
2021/06/15 05:44:32;;;;;;;9.63;2.70;;;17.30;81.80;;;;;;5091446;28;20032;-74
2021/06/15 05:46:58;;;;;;;8.07;2.50;;;17.30;81.50;;;;;;5072867;28;20428;-74
2021/06/15 05:49:24;;;;;;;10.48;2.38;;;17.30;81.20;;;;;;5090758;28;20028;-74
2021/06/15 05:52:04;;;;;;;4.93;2.00;;;17.30;81.30;;;;;;5073274;28;20036;-74
2021/06/15 05:54:30;;;;;;;13.15;2.75;;;17.30;81.00;;;;;;5068001;28;20485;-74
2021/06/15 05:56:56;;;;;;;8.27;2.30;;;17.30;81.10;;;;;;5098057;28;20054;-75
2021/06/15 05:59:23;;;;;;;6.05;2.38;;;17.30;80.90;;;;;;5087135;28;20142;-75
2021/06/15 06:01:48;;;;;;;9.68;2.30;;;17.30;80.90;;;;;;5092835;28;20032;-75
2021/06/15 06:04:16;;;;;;;9.57;2.40;;;17.40;80.90;;;;;;5100852;28;20031;-77
2021/06/15 06:09:26;;;;;;;12.18;2.75;;;17.40;79.80;;;;;;5088049;28;20035;-70
2021/06/15 06:11:52;;;;;;;9.07;2.47;;;17.40;79.60;;;;;;5093918;28;20024;-70
2021/06/15 06:14:18;;;;;;;7.28;2.03;;;17.40;79.40;;;;;;5088391;28;20035;-72
2021/06/15 06:16:44;;;;;;;7.78;2.22;;;17.40;78.80;;;;;;5093610;28;20091;-71
2021/06/15 06:19:11;;;;;;;7.13;2.10;;;17.30;78.70;;;;;;5093962;28;20501;-71
2021/06/15 06:21:37;;;;;;;11.32;2.78;;;17.30;78.30;;;;;;5074219;28;20020;-71
2021/06/15 06:24:06;;;;;;;8.95;1.92;;;17.30;78.30;;;;;;5093134;28;20085;-70
2021/06/15 06:26:32;;;;;;;7.95;1.60;;;17.30;78.30;;;;;;5092298;28;20031;-71
2021/06/15 06:28:57;;;;;;;7.70;1.67;;;17.40;78.20;;;;;;5093110;28;20042;-70
2021/06/15 06:31:23;;;;;;;4.97;1.45;;;17.40;78.00;;;;;;5094016;28;20028;-70
2021/06/15 06:33:49;;;;;;;5.50;1.75;;;17.60;77.90;;;;;;5087766;28;20031;-71
2021/06/15 06:36:16;;;;;;;11.65;2.58;;;17.70;76.10;;;;;;5094554;28;20039;-73
2021/06/15 06:38:42;;;;;;;5.75;1.77;;;17.70;75.80;;;;;;5090769;28;20024;-74
2021/06/15 06:41:08;;;;;;;4.32;1.55;;;17.70;75.40;;;;;;5088694;28;20082;-74
2021/06/15 06:43:36;;;;;;;11.02;2.15;;;17.70;75.90;;;;;;5098475;28;20493;-74
2021/06/15 06:46:01;;;;;;;7.35;1.70;;;17.60;75.90;;;;;;5085285;28;20036;-74
2021/06/15 06:48:27;;;;;;;6.00;1.90;;;17.60;76.00;;;;;;5093034;28;20103;-73
2021/06/15 06:50:53;;;;;;;8.10;1.77;;;17.60;75.80;;;;;;5083824;28;20383;-73
2021/06/15 06:53:18;;;;;;;11.35;2.20;;;17.70;75.30;;;;;;5092777;28;20032;-75
2021/06/15 06:55:44;;;;;;;9.20;2.17;;;17.70;75.80;;;;;;5091886;28;20031;-75
2021/06/15 06:58:10;;;;;;;7.10;1.65;;;17.70;75.60;;;;;;5086319;28;20031;-74
2021/06/15 07:00:36;;;;;;;5.40;1.67;;;17.70;75.90;;;;;;5084072;28;20016;-75
2021/06/15 07:03:03;;;;;;;7.57;2.60;;;17.80;75.60;;;;;;5086598;28;20063;-75
2021/06/15 07:05:28;;;;;;;6.35;1.90;;;17.80;74.20;;;;;;5089356;28;20048;-74
2021/06/15 07:07:54;;;;;;;7.80;1.83;;;17.80;74.60;;;;;;5091562;28;20176;-74
2021/06/15 07:10:21;;;;;;;9.05;2.03;;;17.80;75.10;;;;;;5092004;28;20036;-75
2021/06/15 07:12:47;;;;;;;6.20;1.70;;;17.90;74.40;;;;;;5092204;28;20077;-74
2021/06/15 07:15:14;;;;;;;7.28;2.22;;;17.90;74.60;;;;;;5067829;28;20508;-75
2021/06/15 07:17:40;;;;;;;5.80;2.15;;;17.90;74.10;;;;;;5084238;28;20024;-75
2021/06/15 07:20:07;;;;;;;5.70;1.48;;;17.90;74.20;;;;;;5084553;28;20105;-74
2021/06/15 07:22:33;;;;;;;9.05;1.90;;;17.90;73.70;;;;;;5075987;28;20149;-74
2021/06/15 07:24:59;;;;;;;4.90;2.45;;;17.90;72.50;;;;;;5091420;28;20553;-74
2021/06/15 07:27:25;;;;;;;7.68;2.00;;;17.80;72.70;;;;;;5088454;28;20126;-74
2021/06/15 07:29:50;;;;;;;7.63;1.80;;;17.80;72.90;;;;;;5085948;28;20020;-74
2021/06/15 07:32:16;;;;;;;8.70;2.25;;;17.80;73.10;;;;;;5090118;28;20378;-74
2021/06/15 07:34:42;;;;;;;14.75;1.88;;;17.80;72.50;;;;;;5088601;28;20017;-74
2021/06/15 07:37:08;;;;;;;7.50;1.45;;;17.80;73.00;;;;;;5092233;28;20028;-75
2021/06/15 07:39:34;;;;;;;11.95;2.03;;;17.80;72.90;;;;;;5075959;28;20027;-76
2021/06/15 07:41:59;;;;;;;7.07;1.63;;;17.90;73.40;;;;;;5093932;28;20058;-75
2021/06/15 07:44:26;;;;;;;8.18;2.85;;;17.90;73.30;;;;;;5091241;28;20075;-75
2021/06/15 07:46:54;;;;;;;7.18;1.90;;;18.10;73.00;;;;;;5089787;28;20486;-76
2021/06/15 07:49:21;;;;;;;7.25;1.90;;;18.10;72.50;;;;;;5088371;28;20520;-74
2021/06/15 07:51:47;;;;;;;6.68;1.48;;;18.20;72.40;;;;;;5086681;28;20036;-74
2021/06/15 07:54:12;;;;;;;6.35;1.70;;;18.20;72.20;;;;;;5095188;28;20028;-73
2021/06/15 07:56:38;;;;;;;5.28;2.22;;;18.30;72.40;;;;;;5077636;28;20024;-74
2021/06/15 07:59:04;;;;;;;2.97;0.93;;;18.40;71.90;;;;;;5089574;28;20028;-74
2021/06/15 08:01:29;;;;;;;5.63;1.25;;;18.50;70.40;;;;;;5083832;28;20028;-73
2021/06/15 08:03:56;;;;;;;4.38;1.45;;;18.50;70.70;;;;;;5082428;28;20032;-73
2021/06/15 08:06:22;;;;;;;7.88;2.42;;;18.60;70.60;;;;;;5090364;28;20027;-72
2021/06/15 08:08:48;;;;;;;5.82;2.10;;;18.60;70.70;;;;;;5090918;28;20040;-73
2021/06/15 08:11:14;;;;;;;4.65;1.40;;;18.60;70.70;;;;;;5075779;28;20028;-73
2021/06/15 08:13:40;;;;;;;5.40;1.35;;;18.60;69.90;;;;;;5097226;28;20081;-73
2021/06/15 08:16:06;;;;;;;10.18;2.00;;;18.60;69.70;;;;;;5102690;28;20149;-73
2021/06/15 08:18:34;;;;;;;6.40;1.75;;;18.70;69.70;;;;;;5093777;28;20099;-73
2021/06/15 08:21:00;;;;;;;5.72;1.33;;;18.70;69.20;;;;;;5093972;28;20027;-75
2021/06/15 08:23:27;;;;;;;4.75;1.40;;;18.60;69.40;;;;;;5096125;28;20107;-74
2021/06/15 08:25:53;;;;;;;7.25;1.85;;;18.60;69.60;;;;;;5103162;28;20028;-73
2021/06/15 08:28:20;;;;;;;8.43;2.00;;;18.50;69.60;;;;;;5096843;28;20028;-74
2021/06/15 08:30:46;;;;;;;9.10;2.40;;;18.60;70.40;;;;;;5096146;28;20024;-74
2021/06/15 08:33:12;;;;;;;5.43;1.80;;;18.60;70.20;;;;;;5096287;28;20038;-74
2021/06/15 08:35:39;;;;;;;5.13;1.33;;;18.60;70.20;;;;;;5077071;28;20099;-74
2021/06/15 08:38:05;;;;;;;6.82;1.42;;;18.70;69.60;;;;;;5094995;28;20433;-75
2021/06/15 08:40:31;;;;;;;7.35;1.85;;;18.70;69.20;;;;;;5087791;28;20024;-74
2021/06/15 08:42:57;;;;;;;4.22;1.85;;;18.70;69.40;;;;;;5100855;28;20046;-74
2021/06/15 08:45:24;;;;;;;7.88;1.85;;;18.60;69.20;;;;;;5096184;28;20106;-74
2021/06/15 08:47:52;;;;;;;5.72;1.40;;;18.60;68.30;;;;;;5091575;28;20107;-74
2021/06/15 08:50:23;;;;;;;5.38;1.52;;;18.50;69.10;;;;;;5093773;28;20039;-74
2021/06/15 08:52:49;;;;;;;;;;;18.50;68.60;;;;;;5099825;28;20051;-74
2021/06/15 08:55:16;;;;;;;5.70;1.10;;;18.50;67.80;;;;;;5097283;28;19955;-74
2021/06/15 08:57:45;;;;;;;4.20;1.42;;;18.50;68.40;;;;;;5096057;28;20456;-74
2021/06/15 09:00:12;;;;;;;8.43;1.60;;;18.60;68.50;;;;;;5097772;28;20393;-74
2021/06/15 09:02:42;;;;;;;6.80;1.92;;;18.70;68.20;;;;;;5077477;28;20036;-74
2021/06/15 09:05:09;;;;;;;3.97;1.48;;;18.80;67.90;;;;;;5099955;28;20657;-74
2021/06/15 09:07:57;;;;;;;4.55;1.40;;;18.90;67.90;;;;;;5095397;28;20028;-74
2021/06/15 09:10:31;;;;;;;5.72;1.48;;;18.90;67.40;;;;;;5097081;28;20028;-75
2021/06/15 09:12:58;;;;;;;6.30;1.52;;;19.00;67.10;;;;;;5097837;28;20032;-74
2021/06/15 09:15:25;;;;;;;15.75;1.67;;;18.90;67.30;;;;;;5095884;28;20123;-74
2021/06/15 09:17:51;;;;;;;8.60;2.15;;;18.90;66.20;;;;;;5096845;28;20028;-74
2021/06/15 09:20:22;;;;;;;5.68;1.67;;;18.90;66.40;;;;;;5095957;28;20306;-73
2021/06/15 09:23:02;;;;;;;4.25;1.40;;;18.90;66.90;;;;;;5092638;28;20486;-73
2021/06/15 09:25:29;;;;;;;4.07;1.20;;;19.00;66.80;;;;;;5076550;28;20036;-72
2021/06/15 09:27:57;;;;;;;8.25;1.63;;;19.20;65.60;;;;;;5078709;28;20062;-72
2021/06/15 09:30:26;;;;;;;6.47;1.30;;;19.20;64.80;;;;;;5099931;28;20987;-72
2021/06/15 09:32:53;;;;;;;7.30;1.83;;;19.30;65.70;;;;;;5103192;28;20027;-74
2021/06/15 09:35:28;;;;;;;10.02;1.45;;;19.30;65.80;;;;;;5100400;28;20036;-73
2021/06/15 09:37:57;;;;;;;4.35;1.58;;;19.40;64.90;;;;;;5103819;28;20027;-74
2021/06/15 09:40:27;;;;;;;9.60;1.70;;;19.30;64.70;;;;;;5098959;28;20047;-73
2021/06/15 09:43:12;;;;;;;7.32;1.60;;;19.30;64.60;;;;;;5095115;28;20020;-73
2021/06/15 09:45:46;;;;;;;6.30;1.60;;;19.40;64.60;;;;;;5083963;28;20117;-73
2021/06/15 09:48:34;;;;;;;4.97;1.17;;;19.40;64.80;;;;;;5099532;28;20064;-74
2021/06/15 09:51:01;;;;;;;4.65;1.30;;;19.50;64.90;;;;;;5096084;28;20039;-74
2021/06/15 09:53:37;;;;;;;4.05;1.42;;;19.40;64.50;;;;;;5093756;28;20028;-73
2021/06/15 09:56:05;;;;;;;8.60;2.10;;;19.40;64.60;;;;;;5096257;28;20024;-73
2021/06/15 09:59:01;;;;;;;6.82;1.52;;;19.40;63.20;;;;;;5101977;28;20019;-73
2021/06/15 10:01:28;;;;;;;5.70;1.20;;;19.50;64.00;;;;;;5080383;28;20039;-74
2021/06/15 10:04:18;;;;;;;4.93;1.35;;;19.60;62.60;;;;;;5101556;28;20015;-73
2021/06/15 10:06:52;;;;;;;6.88;1.40;;;19.60;63.00;;;;;;5102624;28;20481;-73
2021/06/15 10:09:26;;;;;;;9.35;1.98;;;19.60;61.80;;;;;;5080689;28;20486;-74
2021/06/15 10:12:03;;;;;;;3.65;1.30;;;19.60;62.40;;;;;;5100081;28;20054;-73
2021/06/15 10:14:29;;;;;;;5.50;1.40;;;19.70;62.90;;;;;;5101860;28;20027;-73
2021/06/15 10:16:57;;;;;;;5.00;1.50;;;19.80;63.40;;;;;;5075041;28;20031;-73
2021/06/15 10:19:24;;;;;;;4.43;1.70;;;19.90;61.40;;;;;;5094992;28;20017;-73
2021/06/15 10:21:51;;;;;;;4.32;1.40;;;19.90;61.70;;;;;;5099630;28;20019;-73
2021/06/15 10:24:22;;;;;;;7.30;1.50;;;19.90;61.50;;;;;;5094772;28;20114;-74
2021/06/15 10:26:48;;;;;;;6.93;1.58;;;19.90;62.00;;;;;;5100639;28;20529;-71
2021/06/15 10:29:15;;;;;;;5.35;1.48;;;19.90;62.40;;;;;;5097035;28;20028;-71
2021/06/15 10:31:44;;;;;;;5.25;2.00;;;19.90;62.40;;;;;;5088943;28;20028;-72
2021/06/15 10:34:10;;;;;;;3.83;1.45;;;20.00;62.00;;;;;;5098055;28;20039;-74
2021/06/15 10:36:44;;;;;;;7.13;1.73;;;20.10;61.90;;;;;;5098911;28;20028;-73
2021/06/15 10:39:37;;;;;;;6.40;1.38;;;20.10;61.70;;;;;;5105583;28;20073;-74
2021/06/15 10:42:16;;;;;;;4.82;1.38;;;20.20;62.20;;;;;;5097375;28;20374;-73
2021/06/15 10:44:46;;;;;;;5.05;1.60;;;20.30;61.80;;;;;;5096272;28;20054;-75
2021/06/15 10:47:14;;;;;;;8.45;1.83;;;20.40;62.40;;;;;;5087768;28;20412;-74
2021/06/15 10:50:00;;;;;;;5.32;1.70;;;20.50;61.20;;;;;;5097101;28;20089;-72
2021/06/15 10:52:56;;;;;;;3.88;1.42;;;20.60;61.40;;;;;;5093930;28;21328;-72
2021/06/15 10:55:53;;;;;;;4.25;1.65;;;20.70;60.10;;;;;;5097161;28;20432;-71
2021/06/15 10:58:44;;;;;;;4.63;1.30;;;20.90;59.20;;;;;;5063173;28;20520;-72
2021/06/15 11:01:28;;;;;;;7.20;1.80;;;20.90;58.30;;;;;;5099352;28;20031;-71
2021/06/15 11:04:04;;;;;;;6.78;1.60;;;20.90;58.30;;;;;;5095482;28;20493;-75
2021/06/15 11:06:29;;;;;;;5.88;1.58;;;20.90;59.00;;;;;;5097709;28;20031;-72
2021/06/15 11:09:16;;;;;;;7.30;1.42;;;20.90;58.90;;;;;;5100878;28;20092;-74
2021/06/15 11:11:46;;;;;;;4.10;1.42;;;20.70;58.30;;;;;;5095741;28;20165;-73
2021/06/15 11:14:22;;;;;;;4.47;1.52;;;20.60;58.20;;;;;;5097436;28;20032;-70
2021/06/15 11:16:55;;;;;;;9.80;1.85;;;20.50;58.60;;;;;;5094267;28;20024;-71
2021/06/15 11:19:20;;;;;;;6.05;1.48;;;20.50;58.90;;;;;;5096095;28;20467;-71
2021/06/15 11:22:16;;;;;;;4.13;1.10;;;20.60;59.20;;;;;;5097815;28;20024;-75
2021/06/15 11:24:48;;;;;;;5.60;2.05;;;20.80;59.20;;;;;;5096267;28;20449;-71
2021/06/15 11:27:18;;;;;;;4.45;1.60;;;20.90;59.30;;;;;;5079225;28;20019;-73
2021/06/15 11:29:45;;;;;;;3.92;1.40;;;20.90;57.00;;;;;;5099509;28;20028;-74
2021/06/15 11:32:17;;;;;;;6.80;1.70;;;20.90;58.30;;;;;;5080615;28;20509;-72
2021/06/15 11:34:52;;;;;;;5.78;1.30;;;20.90;58.60;;;;;;5080013;28;20110;-75
2021/06/15 11:37:24;;;;;;;3.15;1.10;;;20.90;59.20;;;;;;5097903;28;20028;-74
2021/06/15 11:39:51;;;;;;;3.80;1.55;;;21.00;60.40;;;;;;5101107;28;20032;-72
2021/06/15 11:42:29;;;;;;;6.32;1.10;;;21.20;59.40;;;;;;5098397;28;20028;-72
2021/06/15 11:45:04;;;;;;;4.82;1.40;;;21.30;59.00;;;;;;5100181;28;20477;-74
2021/06/15 11:47:41;;;;;;;5.30;1.58;;;21.20;56.10;;;;;;5096533;28;20032;-74
2021/06/15 11:50:09;;;;;;;6.88;2.05;;;21.10;56.30;;;;;;5096698;28;20508;-73
2021/06/15 11:52:36;;;;;;;8.77;1.75;;;21.00;57.20;;;;;;5098498;28;20043;-73
2021/06/15 11:55:03;;;;;;;4.82;1.67;;;21.00;57.70;;;;;;5100254;28;20028;-74
2021/06/15 11:57:29;;;;;;;8.32;1.70;;;21.00;58.50;;;;;;5098133;28;20474;-70
2021/06/15 11:59:54;;;;;;;5.35;1.50;;;20.90;58.80;;;;;;5098550;28;20028;-74
2021/06/15 12:02:21;;;;;;;5.18;1.50;;;20.90;59.00;;;;;;5098439;28;20181;-73
2021/06/15 12:05:10;;;;;;;7.15;1.50;;;20.90;59.50;;;;;;5080966;28;20031;-73
2021/06/15 12:07:39;;;;;;;7.88;2.08;;;21.20;59.60;;;;;;5096322;28;20016;-72
2021/06/15 12:10:14;;;;;;;4.93;1.20;;;21.20;58.60;;;;;;5099688;28;20063;-73
2021/06/15 12:13:09;;;;;;;7.22;2.00;;;21.20;59.20;;;;;;5097204;28;20512;-72
2021/06/15 12:15:38;;;;;;;7.35;1.50;;;21.50;60.10;;;;;;5098557;28;20473;-72
2021/06/15 12:18:07;;;;;;;4.05;1.33;;;21.80;57.30;;;;;;5099865;28;20043;-72
2021/06/15 12:20:37;;;;;;;6.22;1.70;;;21.80;57.10;;;;;;5081615;28;20024;-72
2021/06/15 12:23:41;;;;;;;11.65;1.92;;;21.80;55.80;;;;;;5097360;28;20032;-73
2021/06/15 12:26:16;;;;;;;4.43;1.27;;;21.90;58.10;;;;;;5097248;28;20035;-72
2021/06/15 12:28:48;;;;;;;4.53;1.55;;;22.70;56.30;;;;;;5098706;28;20024;-73
2021/06/15 12:31:30;;;;;;;5.40;1.15;;;23.70;55.90;;;;;;5096825;28;20603;-72
2021/06/15 12:34:03;;;;;;;4.18;1.23;;;24.70;51.10;;;;;;5096618;28;20039;-72
2021/06/15 12:36:31;;;;;;;2.90;1.30;;;25.40;49.80;;;;;;5098350;28;20480;-73
2021/06/15 12:39:19;;;;;;;4.30;1.20;;;26.00;46.30;;;;;;5095465;28;20031;-72
2021/06/15 12:42:00;;;;;;;5.03;1.20;;;26.90;46.50;;;;;;5096894;28;20016;-73
2021/06/15 12:44:28;;;;;;;3.28;1.13;;;27.70;45.70;;;;;;5094473;28;20044;-74
2021/06/15 12:47:03;;;;;;;4.03;1.25;;;28.20;42.70;;;;;;5079578;28;20020;-74
2021/06/15 12:49:28;;;;;;;6.28;1.45;;;28.70;42.00;;;;;;5094276;28;20051;-74
2021/06/15 12:52:04;;;;;;;5.70;1.75;;;29.00;41.10;;;;;;5095431;28;20501;-72
2021/06/15 12:54:35;;;;;;;4.55;1.50;;;29.20;40.60;;;;;;5082638;28;20055;-70
2021/06/15 12:57:06;;;;;;;3.60;1.48;;;29.10;37.80;;;;;;5098219;28;20047;-75
2021/06/15 12:59:41;;;;;;;3.45;1.10;;;29.30;39.00;;;;;;5098294;28;20051;-75
2021/06/15 13:02:22;;;;;;;4.18;1.40;;;29.60;39.50;;;;;;5094776;28;20020;-71